createdAt,value
2019-03-03T00:00:43.872Z,3.37
2019-03-03T00:03:13.246Z,3.90
2019-03-03T00:05:42.060Z,3.47
2019-03-03T00:08:10.878Z,3.40
2019-03-03T00:10:39.699Z,3.57
2019-03-03T00:13:08.507Z,3.80
2019-03-03T00:15:37.291Z,4.00
2019-03-03T00:18:06.156Z,3.77
2019-03-03T00:20:34.914Z,4.20
2019-03-03T00:23:03.752Z,4.73
2019-03-03T00:25:42.284Z,5.00
2019-03-03T00:28:11.100Z,5.33
2019-03-03T00:30:39.904Z,4.97
2019-03-03T00:33:08.774Z,5.53
2019-03-03T00:35:37.802Z,5.73
2019-03-03T00:38:24.403Z,6.07
2019-03-03T00:41:10.178Z,7.17
2019-03-03T00:44:06.867Z,7.43
2019-03-03T00:46:57.695Z,7.30
2019-03-03T00:49:45.521Z,8.10
2019-03-03T00:52:33.430Z,7.70
2019-03-03T00:55:20.102Z,7.60
2019-03-03T00:58:04.040Z,7.50
2019-03-03T01:00:40.937Z,7.50
2019-03-03T01:03:28.806Z,6.90
2019-03-03T01:06:25.727Z,7.77
2019-03-03T01:09:07.970Z,6.67
2019-03-03T01:11:54.996Z,6.23
2019-03-03T01:14:31.970Z,6.40
2019-03-03T01:17:19.783Z,6.47
2019-03-03T01:20:13.765Z,6.93
2019-03-03T01:23:03.166Z,6.13
2019-03-03T01:25:32.500Z,6.37
2019-03-03T01:28:01.414Z,6.20
2019-03-03T01:30:30.166Z,6.17
2019-03-03T01:32:59.015Z,6.40
2019-03-03T01:35:27.760Z,5.33
2019-03-03T01:37:56.653Z,5.97
2019-03-03T01:40:25.441Z,5.67
2019-03-03T01:42:54.272Z,6.03
2019-03-03T01:45:23.196Z,4.73
2019-03-03T01:47:51.952Z,5.33
2019-03-03T01:50:21.020Z,5.20
2019-03-03T01:52:49.843Z,4.77
2019-03-03T01:55:18.746Z,5.03
2019-03-03T01:57:47.537Z,4.27
2019-03-03T02:00:23.431Z,4.30
2019-03-03T02:02:52.311Z,4.47
2019-03-03T02:05:21.255Z,4.43
2019-03-03T02:07:50.324Z,4.90
2019-03-03T02:10:21.760Z,4.07
2019-03-03T02:12:50.930Z,4.27
2019-03-03T02:15:21.570Z,3.90
2019-03-03T02:17:50.405Z,4.70
2019-03-03T02:20:19.384Z,4.10
2019-03-03T02:22:48.241Z,3.97
2019-03-03T02:25:17.031Z,4.30
2019-03-03T02:27:45.798Z,3.67
2019-03-03T02:30:15.919Z,4.10
2019-03-03T02:32:44.658Z,3.97
2019-03-03T02:35:13.557Z,3.90
2019-03-03T02:37:42.469Z,3.93
2019-03-03T02:40:12.443Z,4.20
2019-03-03T02:42:41.226Z,3.90
2019-03-03T02:45:11.251Z,3.60
2019-03-03T02:47:39.999Z,4.23
2019-03-03T02:50:09.427Z,3.90
2019-03-03T02:52:38.204Z,3.67
2019-03-03T02:55:07.826Z,3.20
2019-03-03T02:57:39.102Z,3.40
2019-03-03T03:00:10.407Z,3.90
2019-03-03T03:02:59.166Z,3.70
2019-03-03T03:05:59.023Z,3.57
2019-03-03T03:08:32.549Z,3.70
2019-03-03T03:11:19.172Z,4.07
2019-03-03T03:14:05.990Z,3.10
2019-03-03T03:16:52.415Z,3.10
2019-03-03T03:19:52.166Z,3.33
2019-03-03T03:22:40.114Z,3.60
2019-03-03T03:25:43.251Z,3.03
2019-03-03T03:28:37.318Z,3.30
2019-03-03T03:31:14.618Z,3.30
2019-03-03T03:33:49.809Z,3.57
2019-03-03T03:36:28.118Z,3.13
2019-03-03T03:39:07.303Z,3.50
2019-03-03T03:41:53.205Z,3.23
2019-03-03T03:44:41.975Z,3.60
2019-03-03T03:47:17.325Z,3.53
2019-03-03T03:50:08.189Z,3.77
2019-03-03T03:52:56.526Z,3.57
2019-03-03T03:56:08.988Z,3.60
2019-03-03T03:58:59.867Z,3.80
2019-03-03T04:01:46.853Z,3.90
2019-03-03T04:04:33.484Z,3.80
2019-03-03T04:07:24.401Z,3.80
2019-03-03T04:10:15.649Z,3.20
2019-03-03T04:13:06.741Z,4.80
2019-03-03T04:16:00.699Z,3.90
2019-03-03T04:18:52.022Z,3.83
2019-03-03T04:21:38.587Z,3.50
2019-03-03T04:24:32.922Z,3.70
2019-03-03T04:27:19.447Z,3.70
2019-03-03T04:30:01.045Z,3.37
2019-03-03T04:32:52.118Z,3.97
2019-03-03T04:35:30.660Z,3.70
2019-03-03T04:38:21.548Z,3.63
2019-03-03T04:41:08.005Z,4.40
2019-03-03T04:43:58.919Z,4.07
2019-03-03T04:46:47.102Z,4.13
2019-03-03T04:49:36.723Z,4.00
2019-03-03T04:52:36.719Z,4.30
2019-03-03T04:55:30.935Z,4.40
2019-03-03T04:58:19.594Z,4.60
2019-03-03T05:00:58.407Z,5.03
2019-03-03T05:03:52.206Z,4.70
2019-03-03T05:06:27.489Z,4.90
2019-03-03T05:09:06.049Z,5.17
2019-03-03T05:12:06.569Z,5.20
2019-03-03T05:14:38.714Z,4.30
2019-03-03T05:17:25.110Z,4.70
2019-03-03T05:19:57.324Z,4.60
2019-03-03T05:22:27.725Z,4.97
2019-03-03T05:24:56.426Z,5.17
2019-03-03T05:27:27.406Z,4.23
2019-03-03T05:29:56.773Z,5.43
2019-03-03T05:32:25.704Z,4.93
2019-03-03T05:34:54.486Z,4.90
2019-03-03T05:37:23.235Z,4.87
2019-03-03T05:39:52.023Z,4.77
2019-03-03T05:42:20.741Z,4.73
2019-03-03T05:44:49.561Z,5.63
2019-03-03T05:47:18.350Z,5.17
2019-03-03T05:49:47.722Z,4.90
2019-03-03T05:52:16.500Z,4.97
2019-03-03T05:54:45.285Z,4.80
2019-03-03T05:57:14.574Z,5.00
2019-03-03T06:00:01.315Z,4.40
2019-03-03T06:02:30.106Z,5.10
2019-03-03T06:04:58.941Z,5.63
2019-03-03T06:10:08.907Z,5.57
2019-03-03T06:12:37.710Z,5.50
2019-03-03T06:15:07.258Z,6.17
2019-03-03T06:17:36.179Z,6.20
2019-03-03T06:20:05.408Z,6.50
2019-03-03T06:22:34.214Z,6.53
2019-03-03T06:25:02.946Z,7.30
2019-03-03T06:27:32.100Z,7.00
2019-03-03T06:30:01.230Z,6.85
2019-03-03T06:32:30.688Z,7.50
2019-03-03T06:34:59.515Z,6.93
2019-03-03T06:37:28.354Z,6.47
2019-03-03T06:39:57.264Z,6.70
2019-03-03T06:42:26.297Z,6.87
2019-03-03T06:44:55.181Z,7.30
2019-03-03T06:47:24.218Z,6.97
2019-03-03T06:49:52.978Z,6.80
2019-03-03T06:52:21.810Z,7.53
2019-03-03T06:54:50.943Z,7.10
2019-03-03T06:57:19.825Z,7.10
2019-03-03T06:59:48.594Z,7.10
2019-03-03T07:02:17.406Z,8.03
2019-03-03T07:04:47.071Z,7.73
2019-03-03T07:07:15.830Z,7.40
2019-03-03T07:09:44.651Z,7.87
2019-03-03T07:12:13.439Z,7.83
2019-03-03T07:14:43.051Z,8.93
2019-03-03T07:17:12.958Z,7.50
2019-03-03T07:19:41.767Z,8.40
2019-03-03T07:22:10.673Z,8.20
2019-03-03T07:24:39.486Z,7.87
2019-03-03T07:27:08.290Z,9.17
2019-03-03T07:29:38.859Z,9.10
2019-03-03T07:32:07.627Z,9.40
2019-03-03T07:34:36.719Z,10.60
2019-03-03T07:37:05.500Z,11.50
2019-03-03T07:39:34.647Z,11.20
2019-03-03T07:42:03.406Z,12.00
2019-03-03T07:44:32.247Z,11.77
2019-03-03T07:47:01.074Z,12.00
2019-03-03T07:49:29.892Z,11.80
2019-03-03T07:51:58.675Z,12.70
2019-03-03T07:54:27.497Z,13.17
2019-03-03T07:56:56.239Z,13.70
2019-03-03T07:59:25.136Z,14.40
2019-03-03T08:01:54.558Z,12.83
2019-03-03T08:04:23.359Z,14.37
2019-03-03T08:06:52.169Z,14.77
2019-03-03T08:09:23.286Z,14.80
2019-03-03T08:11:52.109Z,15.10
2019-03-03T08:14:21.025Z,14.67
2019-03-03T08:16:49.871Z,15.33
2019-03-03T08:19:18.657Z,15.00
2019-03-03T08:21:47.467Z,14.50
2019-03-03T08:24:16.261Z,14.80
2019-03-03T08:26:45.041Z,15.33
2019-03-03T08:29:13.863Z,14.37
2019-03-03T08:31:42.670Z,15.50
2019-03-03T08:34:11.463Z,15.20
2019-03-03T08:36:40.341Z,14.60
2019-03-03T08:39:09.231Z,14.03
2019-03-03T08:41:40.345Z,15.07
2019-03-03T08:44:28.628Z,14.77
2019-03-03T08:47:03.111Z,15.50
2019-03-03T08:49:40.926Z,15.93
2019-03-03T08:52:34.691Z,16.33
2019-03-03T08:55:34.752Z,16.17
2019-03-03T08:58:25.473Z,17.27
2019-03-03T09:01:11.714Z,18.07
2019-03-03T09:03:59.526Z,18.37
2019-03-03T09:06:37.017Z,17.70
2019-03-03T09:09:28.487Z,17.70
2019-03-03T09:12:18.875Z,17.23
2019-03-03T09:15:05.991Z,17.53
2019-03-03T09:18:00.313Z,17.07
2019-03-03T09:20:51.481Z,15.57
2019-03-03T09:23:30.973Z,17.17
2019-03-03T09:26:19.878Z,16.40
2019-03-03T09:28:54.442Z,15.03
2019-03-03T09:31:41.146Z,14.55
2019-03-03T09:34:20.691Z,16.50
2019-03-03T09:37:06.247Z,16.00
2019-03-03T09:39:53.006Z,16.33
2019-03-03T09:42:39.642Z,15.77
2019-03-03T09:45:26.424Z,14.53
2019-03-03T09:48:26.667Z,14.37
2019-03-03T09:51:13.123Z,15.50
2019-03-03T09:54:01.064Z,14.77
2019-03-03T09:57:04.285Z,15.67
2019-03-03T09:59:55.389Z,15.00
2019-03-03T10:02:39.195Z,14.37
2019-03-03T10:05:26.411Z,14.10
2019-03-03T10:08:11.283Z,15.97
2019-03-03T10:11:05.353Z,15.77
2019-03-03T10:13:46.668Z,16.80
2019-03-03T10:16:43.877Z,17.10
2019-03-03T10:19:44.078Z,17.03
2019-03-03T10:22:22.962Z,16.97
2019-03-03T10:25:08.172Z,17.03
2019-03-03T10:28:05.350Z,17.57
2019-03-03T10:30:52.190Z,17.70
2019-03-03T10:33:35.692Z,17.53
2019-03-03T10:36:25.386Z,17.93
2019-03-03T10:39:04.347Z,18.90
2019-03-03T10:42:07.276Z,18.03
2019-03-03T10:45:04.461Z,17.43
2019-03-03T10:47:53.170Z,17.83
2019-03-03T10:50:46.867Z,18.53
2019-03-03T10:53:50.235Z,18.63
2019-03-03T10:56:29.938Z,18.37
2019-03-03T10:59:07.467Z,19.10
2019-03-03T11:01:55.062Z,19.43
2019-03-03T11:04:42.023Z,19.40
2019-03-03T11:07:28.347Z,19.30
2019-03-03T11:10:16.480Z,19.83
2019-03-03T11:13:07.148Z,18.83
2019-03-03T11:15:53.041Z,18.67
2019-03-03T11:18:41.038Z,19.33
2019-03-03T11:21:29.278Z,19.00
2019-03-03T11:24:22.464Z,17.77
2019-03-03T11:27:09.491Z,18.27
2019-03-03T11:29:57.332Z,18.03
2019-03-03T11:32:48.255Z,17.00
2019-03-03T11:35:29.868Z,17.37
2019-03-03T11:38:07.898Z,16.60
2019-03-03T11:41:01.677Z,17.13
2019-03-03T11:43:41.745Z,16.17
2019-03-03T11:46:28.665Z,16.00
2019-03-03T11:49:09.896Z,15.40
2019-03-03T11:52:00.755Z,14.97
2019-03-03T11:54:51.664Z,15.50
2019-03-03T11:57:46.190Z,16.47
2019-03-03T12:00:23.158Z,15.93
2019-03-03T12:03:36.052Z,15.37
2019-03-03T12:06:36.306Z,15.93
2019-03-03T12:09:30.888Z,15.43
2019-03-03T12:12:17.407Z,15.63
2019-03-03T12:15:05.564Z,15.67
2019-03-03T12:17:52.486Z,15.40
2019-03-03T12:20:39.050Z,16.07
2019-03-03T12:23:38.878Z,15.60
2019-03-03T12:26:18.254Z,16.43
2019-03-03T12:29:06.677Z,15.97
2019-03-03T12:31:45.498Z,16.43
2019-03-03T12:34:23.295Z,15.97
2019-03-03T12:37:14.130Z,15.87
2019-03-03T12:39:49.735Z,16.43
2019-03-03T12:42:43.900Z,15.73
2019-03-03T12:45:35.690Z,15.47
2019-03-03T12:48:12.761Z,15.67
2019-03-03T12:51:08.428Z,15.80
2019-03-03T12:53:44.469Z,16.40
2019-03-03T12:56:32.435Z,17.10
2019-03-03T12:59:26.036Z,16.27
2019-03-03T13:02:13.907Z,15.40
2019-03-03T13:05:01.797Z,15.17
2019-03-03T13:07:52.958Z,16.10
2019-03-03T13:10:31.389Z,16.20
2019-03-03T13:13:11.967Z,15.90
2019-03-03T13:16:02.723Z,17.03
2019-03-03T13:18:40.476Z,17.17
2019-03-03T13:21:28.882Z,16.57
2019-03-03T13:24:24.528Z,16.70
2019-03-03T13:27:12.366Z,17.53
2019-03-03T13:30:09.400Z,17.80
2019-03-03T13:33:03.146Z,17.87
2019-03-03T13:35:57.198Z,18.83
2019-03-03T13:39:03.420Z,18.73
2019-03-03T13:41:39.287Z,18.33
2019-03-03T13:44:08.170Z,18.77
2019-03-03T13:46:37.095Z,19.13
2019-03-03T13:49:06.277Z,19.57
2019-03-03T13:51:35.059Z,18.83
2019-03-03T13:54:04.092Z,19.27
2019-03-03T13:56:34.380Z,18.57
2019-03-03T13:59:03.215Z,18.13
2019-03-03T14:01:32.391Z,16.93
2019-03-03T14:04:01.271Z,16.03
2019-03-03T14:06:30.234Z,15.27
2019-03-03T14:08:59.117Z,15.10
2019-03-03T14:11:28.246Z,14.23
2019-03-03T14:13:57.116Z,14.17
2019-03-03T14:16:25.978Z,14.57
2019-03-03T14:18:55.090Z,13.70
2019-03-03T14:21:24.062Z,13.13
2019-03-03T14:23:52.887Z,13.30
2019-03-03T14:26:21.752Z,14.00
2019-03-03T14:28:51.043Z,13.23
2019-03-03T14:31:19.847Z,13.27
2019-03-03T14:33:48.816Z,13.70
2019-03-03T14:36:18.106Z,12.67
2019-03-03T14:38:47.163Z,12.60
2019-03-03T14:41:16.137Z,12.20
2019-03-03T14:43:45.084Z,11.10
2019-03-03T14:46:14.420Z,11.93
2019-03-03T14:48:43.303Z,11.73
2019-03-03T14:51:12.148Z,12.10
2019-03-03T14:53:41.254Z,12.77
2019-03-03T14:56:10.102Z,13.27
2019-03-03T14:58:38.917Z,14.00
2019-03-03T15:01:07.808Z,14.27
2019-03-03T15:03:36.873Z,14.40
2019-03-03T15:06:06.471Z,14.93
2019-03-03T15:08:35.520Z,15.17
2019-03-03T15:11:04.370Z,15.60
2019-03-03T15:13:33.322Z,15.20
2019-03-03T15:16:02.248Z,15.03
2019-03-03T15:18:31.454Z,14.70
2019-03-03T15:21:00.371Z,14.13
2019-03-03T15:23:29.407Z,15.33
2019-03-03T15:25:58.408Z,16.40
2019-03-03T15:28:27.248Z,15.97
2019-03-03T15:30:56.227Z,17.87
2019-03-03T15:33:25.145Z,16.43
2019-03-03T15:35:54.094Z,16.53
2019-03-03T15:38:23.072Z,16.60
2019-03-03T15:40:52.037Z,17.50
2019-03-03T15:43:20.934Z,17.23
2019-03-03T15:45:49.807Z,17.23
2019-03-03T15:48:18.904Z,16.27
2019-03-03T15:50:47.707Z,15.27
2019-03-03T15:53:16.562Z,15.30
2019-03-03T15:55:45.359Z,14.17
2019-03-03T15:58:14.210Z,13.63
2019-03-03T16:00:43.106Z,14.27
2019-03-03T16:03:11.897Z,12.27
2019-03-03T16:05:41.241Z,12.03
2019-03-03T16:08:10.056Z,12.30
2019-03-03T16:10:39.535Z,11.00
2019-03-03T16:13:08.374Z,11.90
2019-03-03T16:15:37.209Z,11.83
2019-03-03T16:18:06.670Z,11.20
2019-03-03T16:20:54.573Z,10.67
2019-03-03T16:23:23.355Z,11.27
2019-03-03T16:25:52.510Z,11.00
2019-03-03T16:28:21.313Z,10.53
2019-03-03T16:30:50.259Z,10.93
2019-03-03T16:33:20.851Z,10.37
2019-03-03T16:35:49.697Z,10.03
2019-03-03T16:38:19.291Z,9.87
2019-03-03T16:40:48.306Z,10.20
2019-03-03T16:43:17.147Z,9.53
2019-03-03T16:45:46.952Z,8.63
2019-03-03T16:48:15.719Z,7.90
2019-03-03T16:50:45.247Z,7.30
2019-03-03T16:53:14.804Z,7.53
2019-03-03T16:55:43.881Z,7.50
2019-03-03T16:58:12.793Z,6.77
2019-03-03T17:00:41.794Z,6.77
2019-03-03T17:03:10.757Z,6.40
2019-03-03T17:05:39.707Z,6.00
2019-03-03T17:08:08.715Z,5.80
2019-03-03T17:10:37.650Z,6.07
2019-03-03T17:13:06.526Z,5.83
2019-03-03T17:15:35.473Z,5.17
2019-03-03T17:18:04.524Z,4.83
2019-03-03T17:20:33.498Z,5.03
2019-03-03T17:23:02.436Z,5.20
2019-03-03T17:25:33.680Z,4.80
2019-03-03T17:28:02.644Z,4.97
2019-03-03T17:30:31.727Z,5.03
2019-03-03T17:33:01.806Z,5.07
2019-03-03T17:35:30.638Z,5.93
2019-03-03T17:37:59.496Z,5.40
2019-03-03T17:40:28.355Z,5.10
2019-03-03T17:42:57.851Z,5.13
2019-03-03T17:45:27.438Z,4.90
2019-03-03T17:47:58.088Z,5.00
2019-03-03T17:50:29.480Z,5.30
2019-03-03T17:52:58.930Z,5.23
2019-03-03T17:55:28.227Z,4.95
2019-03-03T17:57:57.803Z,4.93
2019-03-03T18:00:29.350Z,4.73
2019-03-03T18:02:58.667Z,4.87
2019-03-03T18:05:27.916Z,5.00
2019-03-03T18:07:57.043Z,4.13
2019-03-03T18:10:26.027Z,4.53
2019-03-03T18:15:33.006Z,4.87
2019-03-03T18:18:02.028Z,4.37
2019-03-03T18:20:31.013Z,5.17
2019-03-03T18:23:00.015Z,4.37
2019-03-03T18:25:29.310Z,4.70
2019-03-03T18:27:58.391Z,4.80
2019-03-03T18:30:27.435Z,4.50
2019-03-03T18:32:56.251Z,4.70
2019-03-03T18:35:25.137Z,4.10
2019-03-03T18:37:54.495Z,4.97
2019-03-03T18:40:42.422Z,4.17
2019-03-03T18:43:11.257Z,4.63
2019-03-03T18:45:40.189Z,4.30
2019-03-03T18:48:09.014Z,4.70
2019-03-03T18:50:37.947Z,4.80
2019-03-03T18:53:07.050Z,4.60
2019-03-03T18:55:36.903Z,4.43
2019-03-03T18:58:08.314Z,4.50
2019-03-03T19:00:37.264Z,3.90
2019-03-03T19:03:06.546Z,4.00
2019-03-03T19:05:36.453Z,4.40
2019-03-03T19:08:06.915Z,4.47
2019-03-03T19:10:36.193Z,4.27
2019-03-03T19:13:05.112Z,4.37
2019-03-03T19:15:34.172Z,4.60
2019-03-03T19:18:03.236Z,4.60
2019-03-03T19:20:32.790Z,4.60
2019-03-03T19:23:01.796Z,4.57
2019-03-03T19:25:31.959Z,4.40
2019-03-03T19:28:02.478Z,4.00
2019-03-03T19:30:31.603Z,4.20
2019-03-03T19:33:26.304Z,4.53
2019-03-03T19:35:57.601Z,4.37
2019-03-03T19:38:29.796Z,4.90
2019-03-03T19:40:59.198Z,4.10
2019-03-03T19:43:28.543Z,4.70
2019-03-03T19:45:58.087Z,4.23
2019-03-03T19:48:27.311Z,4.43
2019-03-03T19:50:56.454Z,4.13
2019-03-03T19:53:25.393Z,4.60
2019-03-03T19:55:54.397Z,4.10
2019-03-03T19:58:23.236Z,4.80
2019-03-03T20:00:52.514Z,4.63
2019-03-03T20:03:21.492Z,4.00
2019-03-03T20:05:50.469Z,4.40
2019-03-03T20:08:19.702Z,4.20
2019-03-03T20:10:48.582Z,4.60
2019-03-03T20:13:17.538Z,4.43
2019-03-03T20:15:48.663Z,4.13
2019-03-03T20:18:17.540Z,4.17
2019-03-03T20:20:46.376Z,4.67
2019-03-03T20:23:15.874Z,4.37
2019-03-03T20:25:44.788Z,5.07
2019-03-03T20:28:13.700Z,4.40
2019-03-03T20:30:43.515Z,4.57
2019-03-03T20:33:12.556Z,4.30
2019-03-03T20:35:41.522Z,4.70
2019-03-03T20:38:10.386Z,4.50
2019-03-03T20:40:39.397Z,4.40
2019-03-03T20:43:08.286Z,4.37
2019-03-03T20:45:37.288Z,4.50
2019-03-03T20:48:06.081Z,4.20
2019-03-03T20:50:35.126Z,4.53
2019-03-03T20:53:04.179Z,4.80
2019-03-03T20:55:33.302Z,4.37
2019-03-03T20:58:02.240Z,4.27
2019-03-03T21:00:31.311Z,4.67
2019-03-03T21:03:00.203Z,4.37
2019-03-03T21:05:29.209Z,4.80
2019-03-03T21:07:58.249Z,4.97
2019-03-03T21:10:27.261Z,4.10
2019-03-03T21:12:56.130Z,4.60
2019-03-03T21:15:25.093Z,4.40
2019-03-03T21:17:54.159Z,4.73
2019-03-03T21:20:23.296Z,4.67
2019-03-03T21:22:52.189Z,4.77
2019-03-03T21:25:20.984Z,4.70
2019-03-03T21:27:50.092Z,4.40
2019-03-03T21:30:20.196Z,4.77
2019-03-03T21:32:49.077Z,3.97
2019-03-03T21:35:18.066Z,4.30
2019-03-03T21:37:47.081Z,4.70
2019-03-03T21:40:16.604Z,4.50
2019-03-03T21:42:45.586Z,4.67
2019-03-03T21:45:15.780Z,4.80
2019-03-03T21:47:44.845Z,3.97
2019-03-03T21:50:14.542Z,4.67
2019-03-03T21:52:43.351Z,4.60
2019-03-03T21:55:12.528Z,4.93
2019-03-03T21:57:41.290Z,4.67
2019-03-03T22:00:13.751Z,4.80
2019-03-03T22:02:43.267Z,4.47
2019-03-03T22:05:12.125Z,3.93
2019-03-03T22:07:41.035Z,4.20
2019-03-03T22:10:10.077Z,4.03
2019-03-03T22:12:39.106Z,4.70
2019-03-03T22:15:08.161Z,4.00
2019-03-03T22:17:37.508Z,4.20
2019-03-03T22:20:06.541Z,4.33
2019-03-03T22:22:35.876Z,4.37
2019-03-03T22:25:04.817Z,4.20
2019-03-03T22:27:34.102Z,4.47
2019-03-03T22:30:02.906Z,3.90
2019-03-03T22:32:31.697Z,3.70
2019-03-03T22:35:00.531Z,3.93
2019-03-03T22:37:37.239Z,4.27
2019-03-03T22:40:07.216Z,4.00
2019-03-03T22:42:36.046Z,4.37
2019-03-03T22:45:05.425Z,3.80
2019-03-03T22:47:34.276Z,3.87
2019-03-03T22:50:03.142Z,4.27
2019-03-03T22:52:31.989Z,4.00
2019-03-03T22:55:01.254Z,3.97
2019-03-03T22:57:30.026Z,4.60
2019-03-03T23:00:06.963Z,4.00
2019-03-03T23:02:35.717Z,4.77
2019-03-03T23:05:16.428Z,4.80
2019-03-03T23:08:03.641Z,4.10
2019-03-03T23:11:09.724Z,4.27
2019-03-03T23:13:40.763Z,4.40
2019-03-03T23:16:27.307Z,3.87
2019-03-03T23:19:13.763Z,4.87
2019-03-03T23:22:10.847Z,3.87
2019-03-03T23:24:52.783Z,3.50
2019-03-03T23:27:21.820Z,3.80
2019-03-03T23:29:50.646Z,4.13
2019-03-03T23:32:19.663Z,4.00
2019-03-03T23:34:48.496Z,3.43
2019-03-03T23:37:17.315Z,4.33
2019-03-03T23:39:46.234Z,3.80
2019-03-03T23:42:15.027Z,3.27
2019-03-03T23:44:45.078Z,3.93
2019-03-03T23:47:13.989Z,3.70
2019-03-03T23:49:43.474Z,3.70
2019-03-03T23:52:12.652Z,3.70
2019-03-03T23:54:41.516Z,3.57
2019-03-03T23:57:10.355Z,3.73
2019-03-03T23:59:39.215Z,3.40
